Terminal Aerodrome Forecast
Issued by NWS

Home | Current Version | Previous Version | Text Only | Print | Product List | Glossary On
Versions: 1 2 3 4 5 6 7 8 9 10 11 12 13 14 15 16 17
977
FTUS46 KMFR 261144
TAFOTH
TAF
KOTH 261144Z 2612/2712 15008KT P6SM OVC035
     FM261400 16012KT P6SM -RA OVC025 WS020/20040KT
     FM261600 17012G18KT P6SM -RA OVC020 WS020/19045KT
     FM262100 21015G25KT P6SM -SHRA BKN030 OVC050
     FM270000 25012KT P6SM -SHRA BKN035 OVC050=

USA.gov is the U.S. government's official web portal to all federal, state and local government web resources and services.